createdAt,value
2023-02-02T00:00:18.102Z,22.81
2023-02-02T00:01:18.127Z,22.81
2023-02-02T00:02:18.137Z,22.81
2023-02-02T00:03:18.155Z,22.78
2023-02-02T00:04:18.170Z,22.79
2023-02-02T00:05:18.175Z,22.81
2023-02-02T00:06:18.264Z,22.79
2023-02-02T00:07:18.231Z,22.79
2023-02-02T00:08:18.214Z,22.81
2023-02-02T00:09:18.229Z,22.79
2023-02-02T00:10:18.242Z,22.81
2023-02-02T00:11:18.258Z,22.79
2023-02-02T00:12:18.262Z,22.79
2023-02-02T00:13:18.283Z,22.79
2023-02-02T00:14:18.294Z,22.78
2023-02-02T00:15:18.307Z,22.81
2023-02-02T00:16:18.363Z,22.78
2023-02-02T00:17:18.345Z,22.81
2023-02-02T00:18:18.360Z,22.78
2023-02-02T00:19:18.367Z,22.79
2023-02-02T00:20:18.383Z,22.78
2023-02-02T00:21:18.402Z,22.77
2023-02-02T00:22:18.442Z,22.79
2023-02-02T00:23:18.435Z,22.79
2023-02-02T00:24:18.462Z,22.81
2023-02-02T00:25:18.449Z,22.78
2023-02-02T00:26:18.507Z,22.77
2023-02-02T00:27:18.474Z,22.78
2023-02-02T00:28:18.495Z,22.79
2023-02-02T00:29:18.501Z,22.77
2023-02-02T00:30:18.600Z,22.79
2023-02-02T00:31:18.618Z,22.78
2023-02-02T01:10:19.053Z,22.77
2023-02-02T01:11:19.051Z,22.77
2023-02-02T01:12:19.065Z,22.78
2023-02-02T01:13:19.080Z,22.77
2023-02-02T01:14:19.103Z,22.77
2023-02-02T01:15:19.120Z,22.77
2023-02-02T01:16:19.176Z,22.77
2023-02-02T01:17:19.143Z,22.77
2023-02-02T01:18:19.222Z,22.77
2023-02-02T01:19:19.179Z,22.77
2023-02-02T01:20:19.198Z,22.75
2023-02-02T01:21:19.220Z,22.77
2023-02-02T01:22:19.225Z,22.77
2023-02-02T01:23:19.290Z,22.78
2023-02-02T01:24:19.283Z,22.78
2023-02-02T01:25:20.258Z,22.77
2023-02-02T01:26:19.452Z,22.77
2023-02-02T01:27:19.301Z,22.77
2023-02-02T01:28:19.337Z,22.78
2023-02-02T01:29:19.354Z,22.78
2023-02-02T01:30:19.373Z,22.79
2023-02-02T01:31:19.480Z,22.79
2023-02-02T01:32:19.393Z,22.77
2023-02-02T01:33:19.399Z,22.75
2023-02-02T01:34:20.248Z,22.78
2023-02-02T01:35:19.436Z,22.78
2023-02-02T01:36:19.757Z,22.75
2023-02-02T01:37:19.488Z,22.75
2023-02-02T01:38:19.488Z,22.77
2023-02-02T01:39:19.498Z,22.75
2023-02-02T01:40:19.586Z,22.75
2023-02-02T01:41:19.538Z,22.77
2023-02-02T01:42:19.551Z,22.77
2023-02-02T01:43:19.563Z,22.77
2023-02-02T01:44:19.583Z,22.75
2023-02-02T01:45:19.601Z,22.77
2023-02-02T01:46:19.615Z,22.77
2023-02-02T01:47:19.636Z,22.75
2023-02-02T01:48:19.654Z,22.77
2023-02-02T01:49:19.688Z,22.77
2023-02-02T01:50:19.685Z,22.75
2023-02-02T01:51:19.704Z,22.75
2023-02-02T01:52:19.720Z,22.77
2023-02-02T01:53:19.796Z,22.75
2023-02-02T01:54:19.750Z,22.77
2023-02-02T01:55:19.772Z,22.75
2023-02-02T01:56:19.791Z,22.77
2023-02-02T01:57:19.813Z,22.78
2023-02-02T01:58:19.825Z,22.77
2023-02-02T01:59:19.849Z,22.75
2023-02-02T02:00:19.859Z,22.74
2023-02-02T02:01:20.003Z,22.75
2023-02-02T02:02:19.903Z,22.77
2023-02-02T02:03:19.907Z,22.77
2023-02-02T02:04:19.927Z,22.75
2023-02-02T02:05:19.950Z,22.77
2023-02-02T02:06:20.045Z,22.78
2023-02-02T02:07:19.976Z,22.75
2023-02-02T02:08:19.989Z,22.74
2023-02-02T02:09:20.009Z,22.74
2023-02-02T02:10:20.025Z,22.75
2023-02-02T02:11:20.039Z,22.75
2023-02-02T02:12:20.056Z,22.77
2023-02-02T02:13:20.071Z,22.75
2023-02-02T02:14:20.091Z,22.75
2023-02-02T02:15:20.100Z,22.74
2023-02-02T02:16:20.237Z,22.75
2023-02-02T02:17:20.812Z,22.74
2023-02-02T02:18:20.126Z,22.75
2023-02-02T02:19:20.152Z,22.77
2023-02-02T02:20:20.237Z,22.72
2023-02-02T02:21:20.188Z,22.75
2023-02-02T02:22:20.182Z,22.75
2023-02-02T02:23:20.190Z,22.74
2023-02-02T02:24:20.263Z,22.75
2023-02-02T02:25:20.225Z,22.71
2023-02-02T02:26:20.280Z,22.77
2023-02-02T02:27:20.259Z,22.74
2023-02-02T02:28:20.268Z,22.75
2023-02-02T02:29:20.287Z,22.75
2023-02-02T02:30:20.310Z,22.77
2023-02-02T02:31:20.381Z,22.74
2023-02-02T02:32:21.267Z,22.74
2023-02-02T02:33:20.425Z,22.75
2023-02-02T02:34:20.364Z,22.77
2023-02-02T02:35:20.393Z,22.77
2023-02-02T02:36:20.412Z,22.75
2023-02-02T02:37:20.407Z,22.74
2023-02-02T02:38:20.419Z,22.77
2023-02-02T02:39:20.434Z,22.72
2023-02-02T02:40:20.444Z,22.72
2023-02-02T02:41:20.460Z,22.75
2023-02-02T02:42:20.844Z,22.75
2023-02-02T02:43:20.484Z,22.74
2023-02-02T02:44:20.496Z,22.74
2023-02-02T02:45:20.509Z,22.74
2023-02-02T02:46:20.536Z,22.77
2023-02-02T02:47:20.529Z,22.75
2023-02-02T02:48:20.545Z,22.72
2023-02-02T02:49:20.557Z,22.72
2023-02-02T02:50:20.577Z,22.77
2023-02-02T02:51:20.592Z,22.72
2023-02-02T02:52:20.608Z,22.74
2023-02-02T02:53:20.698Z,22.74
2023-02-02T02:54:20.641Z,22.75
2023-02-02T02:55:20.683Z,22.74
2023-02-02T02:56:20.684Z,22.74
2023-02-02T02:57:20.698Z,22.74
2023-02-02T02:58:20.733Z,22.75
2023-02-02T02:59:20.731Z,22.74
2023-02-02T03:00:20.747Z,22.75
2023-02-02T03:01:20.779Z,22.72
2023-02-02T03:02:20.809Z,22.75
2023-02-02T03:03:20.797Z,22.75
2023-02-02T03:35:21.366Z,22.72
2023-02-02T03:36:21.383Z,22.74
2023-02-02T03:37:21.395Z,22.72
2023-02-02T03:38:21.421Z,22.74
2023-02-02T03:39:21.465Z,22.74
2023-02-02T03:40:21.467Z,22.72
2023-02-02T03:41:21.472Z,22.70
2023-02-02T03:42:21.491Z,22.71
2023-02-02T03:43:21.514Z,22.74
2023-02-02T03:44:21.521Z,22.72
2023-02-02T03:45:21.544Z,22.71
2023-02-02T03:46:22.400Z,22.74
2023-02-02T03:47:21.582Z,22.71
2023-02-02T03:48:21.618Z,22.74
2023-02-02T03:49:21.626Z,22.72
2023-02-02T03:50:21.707Z,22.74
2023-02-02T03:51:21.644Z,22.75
2023-02-02T03:52:21.660Z,22.74
2023-02-02T03:53:21.671Z,22.72
2023-02-02T03:54:21.803Z,22.72
2023-02-02T03:55:22.187Z,22.74
2023-02-02T03:56:21.735Z,22.74
2023-02-02T03:57:21.749Z,22.72
2023-02-02T03:58:21.784Z,22.70
2023-02-02T03:59:21.780Z,22.71
2023-02-02T04:00:21.811Z,22.72
2023-02-02T04:01:21.900Z,22.71
2023-02-02T04:02:21.822Z,22.71
2023-02-02T04:03:21.828Z,22.71
2023-02-02T04:04:21.827Z,22.74
2023-02-02T04:05:22.069Z,22.72
2023-02-02T04:06:21.840Z,22.71
2023-02-02T04:07:21.922Z,22.70
2023-02-02T04:08:21.868Z,22.72
2023-02-02T04:09:21.938Z,22.70
2023-02-02T04:10:21.932Z,22.72
2023-02-02T04:11:22.019Z,22.71
2023-02-02T04:12:22.006Z,22.67
2023-02-02T04:13:22.058Z,22.70
2023-02-02T04:14:22.105Z,22.68
2023-02-02T04:15:22.458Z,22.68
2023-02-02T04:16:22.247Z,22.67
2023-02-02T04:17:22.276Z,22.66
2023-02-02T04:18:22.340Z,22.63
2023-02-02T04:19:22.397Z,22.64
2023-02-02T04:20:22.439Z,22.64
2023-02-02T04:21:22.482Z,22.64
2023-02-02T04:22:22.525Z,22.63
2023-02-02T04:23:22.565Z,22.61
2023-02-02T04:24:22.609Z,22.60
2023-02-02T04:25:22.854Z,22.58
2023-02-02T04:26:22.737Z,22.58
2023-02-02T04:27:22.782Z,22.58
2023-02-02T04:28:22.833Z,22.58
2023-02-02T04:29:22.891Z,22.61
2023-02-02T04:30:22.963Z,22.57
2023-02-02T04:31:23.069Z,22.58
2023-02-02T04:32:23.093Z,22.58
2023-02-02T04:33:23.163Z,22.57
2023-02-02T04:34:23.233Z,22.57
2023-02-02T04:35:23.805Z,22.60
2023-02-02T04:36:23.389Z,22.58
2023-02-02T04:37:23.431Z,22.60
2023-02-02T04:38:23.500Z,22.57
2023-02-02T04:39:23.580Z,22.56
2023-02-02T04:40:23.636Z,22.57
2023-02-02T04:41:23.715Z,22.56
2023-02-02T04:42:23.791Z,22.56
2023-02-02T04:43:23.840Z,22.54
2023-02-02T04:44:23.906Z,22.56
2023-02-02T04:45:24.469Z,22.56
2023-02-02T04:46:24.022Z,22.57
2023-02-02T04:47:24.090Z,22.54
2023-02-02T04:48:24.155Z,22.54
2023-02-02T04:49:24.211Z,22.56
2023-02-02T04:50:24.262Z,22.54
2023-02-02T04:51:24.323Z,22.56
2023-02-02T04:52:24.390Z,22.54
2023-02-02T04:53:24.442Z,22.54
2023-02-02T04:54:24.539Z,22.56
2023-02-02T04:55:24.796Z,22.54
2023-02-02T04:56:24.610Z,22.57
2023-02-02T04:57:24.672Z,22.57
2023-02-02T04:58:24.730Z,22.57
2023-02-02T04:59:24.780Z,22.56
2023-02-02T05:00:24.831Z,22.56
2023-02-02T05:01:24.934Z,22.57
2023-02-02T05:02:24.949Z,22.56
2023-02-02T05:03:25.000Z,22.54
2023-02-02T05:04:25.072Z,22.54
2023-02-02T05:05:25.391Z,22.54
2023-02-02T05:06:25.140Z,22.57
2023-02-02T05:07:25.190Z,22.57
2023-02-02T05:08:25.241Z,22.56
2023-02-02T05:09:25.294Z,22.57
2023-02-02T05:10:25.352Z,22.57
2023-02-02T05:11:25.397Z,22.58
2023-02-02T05:12:25.477Z,22.60
2023-02-02T05:13:25.527Z,22.57
2023-02-02T05:14:25.571Z,22.60
2023-02-02T05:15:25.866Z,22.60
2023-02-02T05:16:28.691Z,22.61
2023-02-02T05:17:25.686Z,22.60
2023-02-02T05:18:25.757Z,22.63
2023-02-02T05:19:25.685Z,22.63
2023-02-02T05:20:25.685Z,22.61
2023-02-02T05:21:25.693Z,22.60
2023-02-02T05:22:25.669Z,22.63
2023-02-02T05:23:25.686Z,22.63
2023-02-02T05:24:25.669Z,22.64
2023-02-02T05:25:25.936Z,22.63
2023-02-02T05:26:25.909Z,22.63
2023-02-02T05:27:25.652Z,22.61
2023-02-02T05:28:25.646Z,22.63
2023-02-02T05:29:25.650Z,22.64
2023-02-02T05:30:25.633Z,22.64
2023-02-02T05:31:25.669Z,22.66
2023-02-02T05:32:25.624Z,22.64
2023-02-02T05:33:25.629Z,22.66
2023-02-02T05:34:25.621Z,22.64
2023-02-02T05:35:25.890Z,22.67
2023-02-02T05:36:25.616Z,22.67
2023-02-02T05:37:25.599Z,22.70
2023-02-02T05:38:25.599Z,22.70
2023-02-02T05:39:25.590Z,22.70
2023-02-02T05:40:25.583Z,22.70
2023-02-02T05:41:25.587Z,22.72
2023-02-02T05:42:25.586Z,22.75
2023-02-02T05:43:25.584Z,22.77
2023-02-02T05:44:25.573Z,22.78
2023-02-02T05:45:25.964Z,22.78
2023-02-02T05:46:25.564Z,22.75
2023-02-02T05:47:25.551Z,22.79
2023-02-02T05:48:25.846Z,22.79
2023-02-02T05:49:25.546Z,22.79
2023-02-02T05:50:25.554Z,22.78
2023-02-02T05:51:25.552Z,22.78
2023-02-02T05:52:25.613Z,22.78
2023-02-02T06:12:26.745Z,22.91
2023-02-02T06:14:26.829Z,22.93
2023-02-02T06:15:27.161Z,22.93
2023-02-02T06:16:26.949Z,22.94
2023-02-02T06:17:27.017Z,22.91
2023-02-02T06:18:27.073Z,22.95
2023-02-02T06:19:27.121Z,22.93
2023-02-02T06:20:27.179Z,22.94
2023-02-02T06:21:27.225Z,22.93
2023-02-02T06:22:27.304Z,22.93
2023-02-02T06:23:27.497Z,22.94
2023-02-02T06:24:27.387Z,22.94
2023-02-02T06:25:27.648Z,22.95
2023-02-02T06:26:27.583Z,22.95
2023-02-02T06:27:27.521Z,22.95
2023-02-02T06:28:28.359Z,22.91
2023-02-02T06:29:27.607Z,22.94
2023-02-02T06:30:27.637Z,22.95
2023-02-02T06:31:27.827Z,22.95
2023-02-02T06:32:27.739Z,22.93
2023-02-02T06:33:27.815Z,22.90
2023-02-02T06:34:27.865Z,22.88
2023-02-02T06:35:27.934Z,22.85
2023-02-02T06:36:27.951Z,22.79
2023-02-02T06:37:30.587Z,22.83
2023-02-02T06:38:27.966Z,22.83
2023-02-02T06:39:27.972Z,22.85
2023-02-02T06:40:27.953Z,22.85
2023-02-02T06:41:27.954Z,22.85
2023-02-02T06:42:27.943Z,22.90
2023-02-02T06:43:27.941Z,22.91
2023-02-02T06:44:28.014Z,22.93
2023-02-02T06:45:27.934Z,22.94
2023-02-02T06:46:27.953Z,22.97
2023-02-02T06:47:27.919Z,22.98
2023-02-02T06:48:27.924Z,22.99
2023-02-02T06:53:27.869Z,23.09
2023-02-02T07:12:27.667Z,23.36
2023-02-02T07:13:27.670Z,23.39
2023-02-02T07:14:27.676Z,23.42
2023-02-02T07:15:28.368Z,23.40
2023-02-02T07:16:27.639Z,23.42
2023-02-02T07:18:27.618Z,23.43
2023-02-02T07:19:27.612Z,23.45
2023-02-02T07:20:28.370Z,23.46
2023-02-02T07:21:27.598Z,23.53
2023-02-02T07:22:27.581Z,23.52
2023-02-02T07:23:27.570Z,23.52
2023-02-02T07:24:27.556Z,23.56
2023-02-02T07:25:28.350Z,23.56
2023-02-02T07:26:27.541Z,23.57
2023-02-02T07:27:27.527Z,23.63
2023-02-02T07:28:27.523Z,23.64
2023-02-02T07:29:27.519Z,23.57
2023-02-02T07:30:27.530Z,23.45
2023-02-02T07:31:27.582Z,23.38
2023-02-02T07:32:27.506Z,23.32
2023-02-02T07:33:27.507Z,23.27
2023-02-02T07:34:27.515Z,23.22
2023-02-02T07:35:27.521Z,23.15
2023-02-02T07:36:27.514Z,23.12
2023-02-02T07:37:27.521Z,23.06
2023-02-02T07:38:27.530Z,23.01
2023-02-02T07:39:27.538Z,22.95
2023-02-02T07:40:27.627Z,22.91
2023-02-02T07:41:27.608Z,22.85
2023-02-02T07:42:27.627Z,22.81
2023-02-02T07:43:27.660Z,22.83
2023-02-02T07:44:27.679Z,22.84
2023-02-02T07:45:28.295Z,22.84
2023-02-02T07:46:27.754Z,22.88
2023-02-02T07:47:27.729Z,22.90
2023-02-02T07:48:27.773Z,22.95
2023-02-02T07:49:27.815Z,23.01
2023-02-02T07:50:27.918Z,23.02
2023-02-02T07:51:27.923Z,23.04
2023-02-02T07:52:27.995Z,23.08
2023-02-02T07:53:28.115Z,23.06
2023-02-02T07:54:28.086Z,23.11
2023-02-02T07:55:28.521Z,23.13
2023-02-02T07:56:28.125Z,23.18
2023-02-02T07:57:28.139Z,23.16
2023-02-02T07:58:28.149Z,23.21
2023-02-02T07:59:28.526Z,23.25
2023-02-02T08:00:28.362Z,23.29
2023-02-02T08:01:28.312Z,23.30
2023-02-02T08:02:28.929Z,23.33
2023-02-02T08:03:28.371Z,23.34
2023-02-02T08:04:28.493Z,23.39
2023-02-02T08:05:28.532Z,23.40
2023-02-02T08:06:28.541Z,23.43
2023-02-02T08:07:28.549Z,23.45
2023-02-02T08:08:28.590Z,23.45
2023-02-02T08:09:28.625Z,23.50
2023-02-02T08:10:28.665Z,23.52
2023-02-02T08:11:28.700Z,23.53
2023-02-02T08:12:28.718Z,23.54
2023-02-02T08:13:28.736Z,23.53
2023-02-02T08:14:28.750Z,23.53
2023-02-02T08:15:29.391Z,23.58
2023-02-02T08:16:28.848Z,23.63
2023-02-02T08:17:28.793Z,23.66
2023-02-02T08:18:28.839Z,23.70
2023-02-02T08:19:28.814Z,23.71
2023-02-02T08:20:28.847Z,23.74
2023-02-02T08:21:28.914Z,23.75
2023-02-02T08:22:28.858Z,23.80
2023-02-02T08:23:28.870Z,23.81
2023-02-02T08:24:29.434Z,23.81
2023-02-02T08:25:28.903Z,23.83
2023-02-02T08:26:28.964Z,23.84
2023-02-02T08:27:28.894Z,23.85
2023-02-02T08:28:28.898Z,23.84
2023-02-02T08:29:28.895Z,23.88
2023-02-02T08:30:28.907Z,23.88
2023-02-02T08:31:28.928Z,23.88
2023-02-02T08:32:28.867Z,23.87
2023-02-02T08:33:28.853Z,23.85
2023-02-02T08:34:28.905Z,23.84
2023-02-02T08:35:28.950Z,23.83
2023-02-02T08:36:28.870Z,23.80
2023-02-02T08:37:28.910Z,23.80
2023-02-02T08:38:28.919Z,23.80
2023-02-02T08:39:28.903Z,23.78
2023-02-02T08:40:28.931Z,23.77
2023-02-02T08:41:28.925Z,23.77
2023-02-02T08:42:28.967Z,23.74
2023-02-02T08:43:28.960Z,23.75
2023-02-02T08:44:45.590Z,23.77
2023-02-02T08:46:13.494Z,23.77
2023-02-02T08:46:30.047Z,23.75
2023-02-02T08:47:28.943Z,23.77
2023-02-02T08:48:28.915Z,23.77
2023-02-02T08:49:28.904Z,23.78
2023-02-02T08:50:28.873Z,23.77
2023-02-02T08:51:28.861Z,23.80
2023-02-02T08:52:29.429Z,23.77
2023-02-02T08:53:28.833Z,23.78
2023-02-02T08:54:28.826Z,23.78
2023-02-02T08:55:28.867Z,23.74
2023-02-02T08:56:28.805Z,23.78
2023-02-02T08:57:28.785Z,23.80
2023-02-02T08:58:28.780Z,23.78
2023-02-02T08:59:28.759Z,23.80
2023-02-02T09:00:28.751Z,23.77
2023-02-02T09:01:28.806Z,23.81
2023-02-02T09:02:28.770Z,23.81
2023-02-02T09:03:31.405Z,23.84
2023-02-02T09:04:28.720Z,23.83
2023-02-02T09:05:28.722Z,23.83
2023-02-02T09:06:28.751Z,23.85
2023-02-02T09:07:28.701Z,23.89
2023-02-02T09:08:28.676Z,23.94
2023-02-02T09:09:28.623Z,23.91
2023-02-02T09:10:28.654Z,23.83
2023-02-02T09:11:28.636Z,23.73
2023-02-02T09:12:28.609Z,23.52
2023-02-02T09:13:28.616Z,23.34
2023-02-02T09:14:28.611Z,23.15
2023-02-02T12:43:34.487Z,24.22
2023-02-02T12:51:34.474Z,24.18
2023-02-02T12:52:34.547Z,24.18
2023-02-02T12:53:34.599Z,24.19
2023-02-02T12:54:44.936Z,24.18
2023-02-02T12:55:35.637Z,24.16
2023-02-02T12:56:34.624Z,24.16
2023-02-02T12:57:34.615Z,24.18
2023-02-02T12:58:34.637Z,24.16
2023-02-02T12:59:34.605Z,24.16
2023-02-02T13:00:34.605Z,24.15
2023-02-02T13:01:34.593Z,24.18
2023-02-02T13:02:34.646Z,24.15
2023-02-02T13:03:34.589Z,24.13
2023-02-02T13:04:34.586Z,24.13
2023-02-02T13:05:34.572Z,24.13
2023-02-02T13:06:34.561Z,24.11
2023-02-02T13:07:34.578Z,24.11
2023-02-02T13:08:34.600Z,24.09
2023-02-02T13:09:35.042Z,24.05
2023-02-02T13:10:34.561Z,24.05
2023-02-02T13:11:34.546Z,24.01
2023-02-02T13:12:34.543Z,24.00
2023-02-02T13:13:34.544Z,23.97
2023-02-02T13:14:34.581Z,23.98
2023-02-02T13:15:34.548Z,23.94
2023-02-02T13:16:34.658Z,23.92
2023-02-02T13:17:34.541Z,23.89
2023-02-02T13:18:34.540Z,23.89
2023-02-02T13:19:34.532Z,23.89
2023-02-02T13:20:34.543Z,23.91
2023-02-02T13:21:34.521Z,23.89
2023-02-02T13:22:34.528Z,23.89
2023-02-02T13:23:34.504Z,23.91
2023-02-02T13:24:34.510Z,23.94
2023-02-02T13:25:34.586Z,23.91
2023-02-02T13:26:34.711Z,23.91
2023-02-02T13:27:34.496Z,23.92
2023-02-02T13:28:34.491Z,23.94
2023-02-02T13:29:34.492Z,23.92
2023-02-02T13:30:35.574Z,23.92
2023-02-02T13:31:35.207Z,23.94
2023-02-02T13:32:34.479Z,23.91
2023-02-02T13:33:34.475Z,23.92
2023-02-02T13:34:34.533Z,23.94
2023-02-02T13:35:34.479Z,23.91
2023-02-02T13:36:34.460Z,23.91
2023-02-02T13:37:34.460Z,23.92
2023-02-02T13:38:34.518Z,23.91
2023-02-02T13:58:34.324Z,23.89
2023-02-02T13:59:34.315Z,23.91
2023-02-02T14:00:35.019Z,23.88
2023-02-02T14:01:34.581Z,23.88
2023-02-02T14:02:34.293Z,23.88
2023-02-02T14:03:34.940Z,23.88
2023-02-02T14:05:34.272Z,23.88
2023-02-02T14:06:34.355Z,23.88
2023-02-02T14:07:34.250Z,23.89
2023-02-02T16:56:37.482Z,23.60
2023-02-02T19:12:43.386Z,23.43
2023-02-02T19:13:43.441Z,23.43
2023-02-02T19:14:43.507Z,23.40
2023-02-02T19:15:43.630Z,23.42
2023-02-02T19:16:43.639Z,23.40
2023-02-02T19:17:43.698Z,23.40
2023-02-02T19:18:43.770Z,23.42
2023-02-02T19:19:43.842Z,23.42
2023-02-02T19:20:43.891Z,23.42
2023-02-02T19:21:44.035Z,23.40
2023-02-02T19:22:44.021Z,23.42
2023-02-02T19:23:44.087Z,23.42
2023-02-02T19:24:44.149Z,23.45
2023-02-02T19:25:46.265Z,23.40
2023-02-02T21:57:53.389Z,23.27
2023-02-02T21:58:53.460Z,23.29
2023-02-02T21:59:53.516Z,23.30
2023-02-02T22:00:53.580Z,23.27
2023-02-02T22:01:53.654Z,23.30
2023-02-02T22:02:53.724Z,23.29
2023-02-02T22:03:53.734Z,23.29
2023-02-02T22:04:53.762Z,23.30
2023-02-02T22:05:53.851Z,23.29
